SQY5781 LUKK-LYTV
Flight info
| Callsign | SQY5781 |
|---|---|
| Flight time | N/A |
| Altitude | 34000 |
| Route | POGAV DCT BRV DCT ANASA DCT RAMAP DCT POD |
| Aircraft | B738/M-SDE2E3FGHIRWXY/LB1 |
Departure
| Time | 2026-05-09 09:16 |
|---|---|
| Airport | Chişinău International Airport (LUKK) |
Arrival
| Time | N/A |
|---|---|
| Airport | Tivat Airport (LYTV) |
| Time | Latitude | Longitude | Altitude | Speed | Heading |
|---|---|---|---|---|---|
| 2026-05-09 08:58 | 46.93239 | 28.93540 | 407 ft | 0 kts | 276° |
| 2026-05-09 09:07 | 46.93239 | 28.93536 | 407 ft | 2 kts | 276° |
| 2026-05-09 09:07 | 46.93242 | 28.93499 | 406 ft | 0 kts | 277° |
| 2026-05-09 09:07 | 46.93242 | 28.93493 | 407 ft | 2 kts | 266° |
| 2026-05-09 09:08 | 46.93223 | 28.93471 | 408 ft | 5 kts | 206° |
| 2026-05-09 09:08 | 46.93193 | 28.93456 | 409 ft | 0 kts | 197° |
| 2026-05-09 09:08 | 46.93191 | 28.93455 | 409 ft | 1 kts | 197° |
| 2026-05-09 09:08 | 46.93161 | 28.93422 | 408 ft | 10 kts | 245° |
| 2026-05-09 09:09 | 46.93165 | 28.93276 | 409 ft | 16 kts | 278° |
| 2026-05-09 09:09 | 46.93175 | 28.93116 | 409 ft | 16 kts | 274° |
| 2026-05-09 09:09 | 46.93190 | 28.92961 | 408 ft | 15 kts | 279° |
| 2026-05-09 09:09 | 46.93201 | 28.92813 | 407 ft | 14 kts | 275° |
| 2026-05-09 09:10 | 46.93210 | 28.92671 | 406 ft | 14 kts | 275° |
| 2026-05-09 09:10 | 46.93225 | 28.92526 | 405 ft | 17 kts | 278° |
| 2026-05-09 09:10 | 46.93245 | 28.92324 | 406 ft | 22 kts | 278° |
| 2026-05-09 09:10 | 46.93260 | 28.92117 | 406 ft | 15 kts | 274° |
| 2026-05-09 09:11 | 46.93203 | 28.92028 | 407 ft | 13 kts | 195° |
| 2026-05-09 09:11 | 46.93120 | 28.91994 | 407 ft | 12 kts | 192° |
| 2026-05-09 09:11 | 46.93036 | 28.91993 | 407 ft | 12 kts | 176° |
| 2026-05-09 09:11 | 46.92954 | 28.91994 | 407 ft | 12 kts | 187° |
| 2026-05-09 09:12 | 46.92885 | 28.91996 | 407 ft | 0 kts | 179° |
| 2026-05-09 09:14 | 46.92884 | 28.91996 | 407 ft | 1 kts | 179° |
| 2026-05-09 09:14 | 46.92861 | 28.91997 | 407 ft | 7 kts | 178° |
| 2026-05-09 09:14 | 46.92791 | 28.92005 | 408 ft | 13 kts | 164° |
| 2026-05-09 09:14 | 46.92759 | 28.92071 | 408 ft | 0 kts | 89° |
| 2026-05-09 09:15 | 46.92759 | 28.92096 | 408 ft | 11 kts | 88° |
| 2026-05-09 09:16 | 46.92769 | 28.92611 | 408 ft | 90 kts | 88° |
| 2026-05-09 09:16 | 46.92820 | 28.95480 | 1124 ft | 159 kts | 89° |
| 2026-05-09 09:16 | 46.92852 | 28.97101 | 2022 ft | 163 kts | 89° |
| 2026-05-09 09:17 | 46.92885 | 28.98763 | 2673 ft | 166 kts | 90° |
| 2026-05-09 09:17 | 46.92928 | 29.00486 | 3199 ft | 169 kts | 90° |
| 2026-05-09 09:17 | 46.92878 | 29.02212 | 3723 ft | 172 kts | 112° |
| 2026-05-09 09:17 | 46.92082 | 29.03475 | 4074 ft | 182 kts | 157° |
| 2026-05-09 09:18 | 46.90768 | 29.03645 | 4283 ft | 203 kts | 191° |
| 2026-05-09 09:18 | 46.89495 | 29.02602 | 4429 ft | 224 kts | 226° |
| 2026-05-09 09:18 | 46.88643 | 29.00581 | 4602 ft | 241 kts | 239° |
| 2026-05-09 09:18 | 46.87881 | 28.98393 | 4967 ft | 248 kts | 240° |
| 2026-05-09 09:19 | 46.87081 | 28.96060 | 5148 ft | 264 kts | 240° |
| 2026-05-09 09:19 | 46.86244 | 28.93624 | 5669 ft | 270 kts | 240° |
| 2026-05-09 09:19 | 46.85397 | 28.91170 | 6375 ft | 272 kts | 240° |
| 2026-05-09 09:19 | 46.84535 | 28.88693 | 7026 ft | 274 kts | 240° |
| 2026-05-09 09:20 | 46.83663 | 28.86203 | 7718 ft | 277 kts | 240° |
| 2026-05-09 09:20 | 46.82780 | 28.83693 | 8392 ft | 280 kts | 240° |
| 2026-05-09 09:20 | 46.81884 | 28.81157 | 9075 ft | 283 kts | 240° |
| 2026-05-09 09:20 | 46.80975 | 28.78597 | 9800 ft | 285 kts | 240° |
| 2026-05-09 09:21 | 46.80056 | 28.76011 | 10418 ft | 291 kts | 240° |
| 2026-05-09 09:21 | 46.79085 | 28.73295 | 10588 ft | 313 kts | 240° |
| 2026-05-09 09:21 | 46.78042 | 28.70381 | 10778 ft | 334 kts | 240° |
| 2026-05-09 09:21 | 46.76948 | 28.67328 | 11218 ft | 344 kts | 240° |
| 2026-05-09 09:22 | 46.75834 | 28.64218 | 11866 ft | 347 kts | 240° |
| 2026-05-09 09:22 | 46.74712 | 28.61086 | 12564 ft | 350 kts | 240° |
| 2026-05-09 09:22 | 46.73577 | 28.57922 | 13254 ft | 354 kts | 240° |
| 2026-05-09 09:22 | 46.72425 | 28.54719 | 13882 ft | 360 kts | 240° |
| 2026-05-09 09:23 | 46.71255 | 28.51469 | 14488 ft | 364 kts | 240° |
| 2026-05-09 09:23 | 46.70073 | 28.48191 | 15184 ft | 366 kts | 240° |
| 2026-05-09 09:23 | 46.68883 | 28.44896 | 15891 ft | 368 kts | 240° |
| 2026-05-09 09:23 | 46.67686 | 28.41584 | 16572 ft | 371 kts | 240° |
| 2026-05-09 09:24 | 46.66476 | 28.38244 | 17218 ft | 375 kts | 240° |
| 2026-05-09 09:24 | 46.65254 | 28.34873 | 17876 ft | 378 kts | 240° |
| 2026-05-09 09:24 | 46.64019 | 28.31472 | 18519 ft | 381 kts | 240° |
| 2026-05-09 09:24 | 46.62776 | 28.28052 | 19062 ft | 384 kts | 240° |
| 2026-05-09 09:25 | 46.61521 | 28.24606 | 19619 ft | 387 kts | 240° |
| 2026-05-09 09:25 | 46.60256 | 28.21135 | 20185 ft | 390 kts | 240° |
| 2026-05-09 09:25 | 46.58983 | 28.17645 | 20753 ft | 392 kts | 240° |
| 2026-05-09 09:25 | 46.57697 | 28.14127 | 21272 ft | 396 kts | 241° |
| 2026-05-09 09:26 | 46.56399 | 28.10580 | 21757 ft | 400 kts | 241° |
| 2026-05-09 09:26 | 46.55088 | 28.07000 | 22301 ft | 402 kts | 241° |
| 2026-05-09 09:26 | 46.53771 | 28.03409 | 22868 ft | 403 kts | 241° |
| 2026-05-09 09:26 | 46.52445 | 27.99799 | 23349 ft | 407 kts | 241° |
| 2026-05-09 09:27 | 46.51103 | 27.96153 | 23744 ft | 412 kts | 241° |
| 2026-05-09 09:27 | 46.49749 | 27.92478 | 24222 ft | 413 kts | 241° |
| 2026-05-09 09:27 | 46.48395 | 27.88805 | 24711 ft | 413 kts | 241° |
| 2026-05-09 09:27 | 46.47032 | 27.85116 | 25107 ft | 416 kts | 241° |
| 2026-05-09 09:28 | 46.45658 | 27.81401 | 25452 ft | 420 kts | 240° |
| 2026-05-09 09:28 | 46.44271 | 27.77657 | 25853 ft | 422 kts | 240° |
| 2026-05-09 09:28 | 46.42880 | 27.73905 | 26292 ft | 423 kts | 240° |
| 2026-05-09 09:28 | 46.41481 | 27.70140 | 26678 ft | 425 kts | 240° |
| 2026-05-09 09:29 | 46.40075 | 27.66359 | 27047 ft | 428 kts | 240° |
| 2026-05-09 09:29 | 46.38660 | 27.62561 | 27437 ft | 430 kts | 240° |
| 2026-05-09 09:29 | 46.37235 | 27.58742 | 27821 ft | 431 kts | 240° |
| 2026-05-09 09:29 | 46.35807 | 27.54919 | 28192 ft | 433 kts | 240° |
| 2026-05-09 09:30 | 46.34369 | 27.51074 | 28552 ft | 435 kts | 240° |
| 2026-05-09 09:30 | 46.32925 | 27.47220 | 28962 ft | 435 kts | 240° |
| 2026-05-09 09:30 | 46.31485 | 27.43381 | 29484 ft | 433 kts | 240° |
| 2026-05-09 09:30 | 46.30072 | 27.39618 | 30034 ft | 431 kts | 240° |
| 2026-05-09 09:31 | 46.28624 | 27.35767 | 30421 ft | 430 kts | 240° |
| 2026-05-09 09:31 | 46.27193 | 27.31968 | 30771 ft | 430 kts | 240° |
| 2026-05-09 09:31 | 46.25783 | 27.28230 | 31187 ft | 428 kts | 240° |
| 2026-05-09 09:32 | 46.22943 | 27.20718 | 32007 ft | 425 kts | 240° |
| 2026-05-09 09:32 | 46.21985 | 27.18190 | 32253 ft | 424 kts | 240° |
| 2026-05-09 09:32 | 46.20111 | 27.13248 | 32750 ft | 423 kts | 240° |
| 2026-05-09 09:32 | 46.18702 | 27.09537 | 33139 ft | 421 kts | 240° |
| 2026-05-09 09:33 | 46.17295 | 27.05840 | 33509 ft | 420 kts | 240° |
| 2026-05-09 09:33 | 46.16365 | 27.03397 | 33740 ft | 419 kts | 240° |
| 2026-05-09 09:33 | 46.14961 | 26.99713 | 34067 ft | 419 kts | 240° |
| 2026-05-09 09:34 | 46.12120 | 26.92280 | 34076 ft | 424 kts | 239° |
| 2026-05-09 09:34 | 46.09286 | 26.84879 | 34059 ft | 418 kts | 239° |
| 2026-05-09 09:36 | 45.99104 | 26.58354 | 34066 ft | 446 kts | 240° |
| 2026-05-09 09:36 | 45.97624 | 26.54442 | 34062 ft | 446 kts | 240° |
| 2026-05-09 09:37 | 45.94635 | 26.46632 | 34058 ft | 446 kts | 239° |
| 2026-05-09 09:37 | 45.91616 | 26.38852 | 34031 ft | 446 kts | 239° |
| 2026-05-09 09:38 | 45.88585 | 26.31098 | 34049 ft | 445 kts | 239° |
| 2026-05-09 09:38 | 45.85547 | 26.23354 | 34054 ft | 445 kts | 239° |
| 2026-05-09 09:39 | 45.82505 | 26.15618 | 34031 ft | 445 kts | 239° |
| 2026-05-09 09:39 | 45.79483 | 26.07953 | 34028 ft | 444 kts | 239° |
| 2026-05-09 09:40 | 45.76439 | 26.00253 | 34042 ft | 444 kts | 239° |
| 2026-05-09 09:40 | 45.73390 | 25.92565 | 34051 ft | 444 kts | 239° |
| 2026-05-09 09:41 | 45.70343 | 25.84899 | 34055 ft | 443 kts | 238° |
| 2026-05-09 09:41 | 45.67295 | 25.77255 | 34034 ft | 443 kts | 238° |
| 2026-05-09 09:42 | 45.64242 | 25.69616 | 34030 ft | 443 kts | 238° |
| 2026-05-09 09:42 | 45.61182 | 25.61985 | 34042 ft | 442 kts | 238° |
| 2026-05-09 09:43 | 45.58118 | 25.54362 | 34034 ft | 443 kts | 238° |
| 2026-05-09 09:43 | 45.55048 | 25.46744 | 34040 ft | 443 kts | 238° |
| 2026-05-09 09:44 | 45.51976 | 25.39144 | 34042 ft | 442 kts | 238° |
| 2026-05-09 09:44 | 45.48896 | 25.31545 | 34031 ft | 443 kts | 238° |
| 2026-05-09 09:45 | 45.45811 | 25.23953 | 34064 ft | 443 kts | 238° |
| 2026-05-09 09:45 | 45.42710 | 25.16343 | 34059 ft | 445 kts | 238° |
| 2026-05-09 09:46 | 45.39590 | 25.08711 | 34038 ft | 447 kts | 238° |
| 2026-05-09 09:46 | 45.36464 | 25.01078 | 34029 ft | 446 kts | 238° |
| 2026-05-09 09:47 | 45.33340 | 24.93474 | 34045 ft | 445 kts | 238° |
| 2026-05-09 09:47 | 45.30217 | 24.85895 | 34049 ft | 444 kts | 238° |
| 2026-05-09 09:48 | 45.27091 | 24.78326 | 34045 ft | 444 kts | 238° |
| 2026-05-09 09:48 | 45.23942 | 24.70725 | 34048 ft | 449 kts | 238° |
| 2026-05-09 09:49 | 45.20761 | 24.63067 | 34049 ft | 452 kts | 238° |
| 2026-05-09 09:49 | 45.17560 | 24.55382 | 34039 ft | 452 kts | 238° |
| 2026-05-09 09:50 | 45.14378 | 24.47758 | 34043 ft | 447 kts | 238° |
| 2026-05-09 09:50 | 45.11220 | 24.40214 | 34062 ft | 444 kts | 238° |
| 2026-05-09 09:51 | 45.08072 | 24.32719 | 34051 ft | 447 kts | 238° |
| 2026-05-09 09:51 | 45.04892 | 24.25167 | 34028 ft | 446 kts | 238° |
| 2026-05-09 09:52 | 45.01735 | 24.17685 | 34041 ft | 441 kts | 238° |
| 2026-05-09 09:52 | 44.98593 | 24.10260 | 34052 ft | 439 kts | 238° |
| 2026-05-09 09:53 | 44.95456 | 24.02869 | 34048 ft | 439 kts | 238° |
| 2026-05-09 09:53 | 44.92314 | 23.95484 | 34047 ft | 439 kts | 238° |
| 2026-05-09 09:54 | 44.89167 | 23.88105 | 34059 ft | 440 kts | 238° |
| 2026-05-09 09:54 | 44.86002 | 23.80705 | 34059 ft | 442 kts | 238° |
| 2026-05-09 09:55 | 44.82810 | 23.73260 | 34032 ft | 445 kts | 239° |
| 2026-05-09 09:55 | 44.79610 | 23.65816 | 34039 ft | 443 kts | 239° |
| 2026-05-09 09:56 | 44.76415 | 23.58404 | 34056 ft | 443 kts | 238° |
| 2026-05-09 09:56 | 44.73212 | 23.50991 | 34043 ft | 444 kts | 238° |
| 2026-05-09 09:57 | 44.69999 | 23.43578 | 34035 ft | 443 kts | 239° |
| 2026-05-09 09:57 | 44.66791 | 23.36193 | 34037 ft | 443 kts | 239° |
| 2026-05-09 09:58 | 44.63580 | 23.28818 | 34042 ft | 442 kts | 239° |
| 2026-05-09 09:58 | 44.60364 | 23.21454 | 34049 ft | 442 kts | 239° |
| 2026-05-09 09:59 | 44.57147 | 23.14106 | 34051 ft | 442 kts | 239° |
| 2026-05-09 09:59 | 44.53933 | 23.06783 | 34041 ft | 440 kts | 240° |
| 2026-05-09 10:00 | 44.50728 | 22.99498 | 34043 ft | 438 kts | 240° |
| 2026-05-09 10:00 | 44.47552 | 22.92298 | 34045 ft | 437 kts | 240° |
| 2026-05-09 10:01 | 44.44355 | 22.85068 | 34042 ft | 436 kts | 240° |
| 2026-05-09 10:01 | 44.41159 | 22.77858 | 34044 ft | 436 kts | 240° |
| 2026-05-09 10:02 | 44.37960 | 22.70660 | 34038 ft | 435 kts | 240° |
| 2026-05-09 10:02 | 44.34762 | 22.63477 | 34040 ft | 435 kts | 239° |
| 2026-05-09 10:03 | 44.31559 | 22.56308 | 34041 ft | 435 kts | 239° |
| 2026-05-09 10:03 | 44.28099 | 22.49355 | 34040 ft | 436 kts | 236° |
| 2026-05-09 10:04 | 44.24480 | 22.42552 | 34036 ft | 437 kts | 236° |
| 2026-05-09 10:04 | 44.20861 | 22.35750 | 34050 ft | 437 kts | 236° |
| 2026-05-09 10:05 | 44.17258 | 22.28934 | 34042 ft | 437 kts | 236° |
| 2026-05-09 10:05 | 44.13661 | 22.22119 | 34040 ft | 436 kts | 236° |
| 2026-05-09 10:06 | 44.10065 | 22.15316 | 34056 ft | 436 kts | 236° |
| 2026-05-09 10:06 | 44.06490 | 22.08567 | 34054 ft | 436 kts | 236° |
| 2026-05-09 10:07 | 44.02891 | 22.01791 | 34057 ft | 436 kts | 236° |
| 2026-05-09 10:07 | 43.99291 | 21.95029 | 34045 ft | 435 kts | 237° |
| 2026-05-09 10:08 | 43.95697 | 21.88295 | 34058 ft | 434 kts | 237° |
| 2026-05-09 10:08 | 43.92094 | 21.81560 | 34063 ft | 434 kts | 237° |
| 2026-05-09 10:09 | 43.88489 | 21.74835 | 34055 ft | 434 kts | 237° |
| 2026-05-09 10:09 | 43.84881 | 21.68120 | 34063 ft | 434 kts | 237° |
| 2026-05-09 10:10 | 43.81267 | 21.61408 | 34062 ft | 435 kts | 237° |
| 2026-05-09 10:10 | 43.77658 | 21.54722 | 34069 ft | 435 kts | 237° |
| 2026-05-09 10:11 | 43.74029 | 21.48016 | 34063 ft | 435 kts | 237° |
| 2026-05-09 10:11 | 43.70393 | 21.41311 | 34053 ft | 435 kts | 236° |
| 2026-05-09 10:12 | 43.66763 | 21.34632 | 34066 ft | 435 kts | 236° |
| 2026-05-09 10:12 | 43.63126 | 21.27956 | 34074 ft | 435 kts | 236° |
| 2026-05-09 10:13 | 43.59486 | 21.21288 | 34081 ft | 435 kts | 236° |
| 2026-05-09 10:13 | 43.55843 | 21.14631 | 34070 ft | 435 kts | 236° |
| 2026-05-09 10:14 | 43.52214 | 21.08015 | 34084 ft | 435 kts | 236° |
| 2026-05-09 10:14 | 43.48559 | 21.01362 | 34002 ft | 437 kts | 236° |
| 2026-05-09 10:14 | 43.46709 | 20.98002 | 33662 ft | 440 kts | 236° |
| 2026-05-09 10:15 | 43.44860 | 20.94645 | 33225 ft | 440 kts | 236° |
| 2026-05-09 10:15 | 43.43013 | 20.91298 | 32838 ft | 440 kts | 236° |
| 2026-05-09 10:15 | 43.41149 | 20.87938 | 32412 ft | 443 kts | 234° |
| 2026-05-09 10:15 | 43.39205 | 20.84644 | 31990 ft | 446 kts | 233° |
| 2026-05-09 10:16 | 43.37191 | 20.81382 | 31574 ft | 448 kts | 232° |
| 2026-05-09 10:16 | 43.35155 | 20.78136 | 31153 ft | 450 kts | 232° |
| 2026-05-09 10:16 | 43.33107 | 20.74878 | 30730 ft | 451 kts | 232° |
| 2026-05-09 10:16 | 43.31061 | 20.71608 | 30309 ft | 452 kts | 233° |
| 2026-05-09 10:17 | 43.29013 | 20.68322 | 29851 ft | 454 kts | 233° |
| 2026-05-09 10:17 | 43.26962 | 20.65017 | 29357 ft | 456 kts | 232° |
| 2026-05-09 10:17 | 43.24905 | 20.61697 | 28875 ft | 457 kts | 232° |
| 2026-05-09 10:17 | 43.22846 | 20.58375 | 28416 ft | 457 kts | 232° |
| 2026-05-09 10:18 | 43.20790 | 20.55059 | 27970 ft | 456 kts | 232° |
| 2026-05-09 10:18 | 43.18735 | 20.51747 | 27499 ft | 456 kts | 232° |
| 2026-05-09 10:18 | 43.16675 | 20.48433 | 27053 ft | 458 kts | 232° |
| 2026-05-09 10:18 | 43.14598 | 20.45092 | 26609 ft | 465 kts | 232° |
| 2026-05-09 10:19 | 43.12490 | 20.41705 | 26134 ft | 469 kts | 232° |
| 2026-05-09 10:19 | 43.10379 | 20.38320 | 25673 ft | 467 kts | 232° |
| 2026-05-09 10:19 | 43.08269 | 20.34944 | 25209 ft | 465 kts | 232° |
| 2026-05-09 10:19 | 43.06172 | 20.31591 | 24766 ft | 463 kts | 232° |
| 2026-05-09 10:20 | 43.04082 | 20.28252 | 24302 ft | 462 kts | 232° |
| 2026-05-09 10:20 | 43.01993 | 20.24919 | 23833 ft | 460 kts | 232° |
| 2026-05-09 10:20 | 42.99911 | 20.21601 | 23310 ft | 458 kts | 231° |
| 2026-05-09 10:20 | 42.98519 | 20.19385 | 22974 ft | 455 kts | 231° |
| 2026-05-09 10:21 | 42.95802 | 20.15063 | 22365 ft | 450 kts | 231° |
| 2026-05-09 10:21 | 42.94426 | 20.12877 | 22058 ft | 447 kts | 231° |
| 2026-05-09 10:21 | 42.92407 | 20.09671 | 21624 ft | 444 kts | 231° |
| 2026-05-09 10:21 | 42.90397 | 20.06483 | 21167 ft | 441 kts | 231° |
| 2026-05-09 10:22 | 42.88402 | 20.03323 | 20751 ft | 439 kts | 231° |
| 2026-05-09 10:22 | 42.86414 | 20.00175 | 20326 ft | 437 kts | 231° |
| 2026-05-09 10:22 | 42.84433 | 19.97044 | 19904 ft | 435 kts | 231° |
| 2026-05-09 10:22 | 42.82459 | 19.93927 | 19475 ft | 433 kts | 231° |
| 2026-05-09 10:23 | 42.80497 | 19.90830 | 19053 ft | 431 kts | 231° |
| 2026-05-09 10:23 | 42.78544 | 19.87753 | 18636 ft | 429 kts | 230° |
| 2026-05-09 10:23 | 42.76595 | 19.84685 | 18192 ft | 427 kts | 230° |
| 2026-05-09 10:23 | 42.74660 | 19.81643 | 17719 ft | 424 kts | 230° |
| 2026-05-09 10:24 | 42.72734 | 19.78620 | 17263 ft | 421 kts | 231° |
| 2026-05-09 10:24 | 42.70853 | 19.75668 | 16850 ft | 417 kts | 231° |
| 2026-05-09 10:24 | 42.68959 | 19.72698 | 16437 ft | 414 kts | 231° |
| 2026-05-09 10:24 | 42.67078 | 19.69753 | 16054 ft | 411 kts | 231° |
| 2026-05-09 10:25 | 42.65210 | 19.66827 | 15643 ft | 409 kts | 230° |
| 2026-05-09 10:25 | 42.63345 | 19.63912 | 15239 ft | 408 kts | 230° |
| 2026-05-09 10:25 | 42.61487 | 19.61013 | 14832 ft | 407 kts | 230° |
| 2026-05-09 10:25 | 42.59635 | 19.58125 | 14439 ft | 405 kts | 230° |
| 2026-05-09 10:26 | 42.57786 | 19.55244 | 14043 ft | 404 kts | 230° |
| 2026-05-09 10:26 | 42.55944 | 19.52375 | 13605 ft | 403 kts | 230° |
| 2026-05-09 10:26 | 42.54084 | 19.49482 | 13164 ft | 400 kts | 230° |
| 2026-05-09 10:26 | 42.52263 | 19.46651 | 12755 ft | 397 kts | 230° |
| 2026-05-09 10:27 | 42.50453 | 19.43842 | 12350 ft | 395 kts | 230° |
| 2026-05-09 10:27 | 42.48646 | 19.41039 | 11944 ft | 394 kts | 230° |
| 2026-05-09 10:27 | 42.46843 | 19.38245 | 11559 ft | 393 kts | 230° |
| 2026-05-09 10:27 | 42.45046 | 19.35462 | 11164 ft | 392 kts | 230° |
| 2026-05-09 10:28 | 42.43277 | 19.32725 | 10783 ft | 391 kts | 230° |
| 2026-05-09 10:28 | 42.41487 | 19.29957 | 10396 ft | 390 kts | 230° |
| 2026-05-09 10:28 | 42.39707 | 19.27210 | 10123 ft | 385 kts | 229° |
| 2026-05-09 10:28 | 42.37933 | 19.24521 | 9814 ft | 383 kts | 227° |
| 2026-05-09 10:29 | 42.36041 | 19.21971 | 9396 ft | 384 kts | 225° |
| 2026-05-09 10:29 | 42.34103 | 19.19495 | 8992 ft | 383 kts | 224° |
| 2026-05-09 10:29 | 42.32163 | 19.17037 | 8595 ft | 382 kts | 224° |
| 2026-05-09 10:29 | 42.30239 | 19.14582 | 8205 ft | 377 kts | 224° |
| 2026-05-09 10:30 | 42.28391 | 19.12206 | 7813 ft | 357 kts | 224° |
| 2026-05-09 10:30 | 42.26642 | 19.09943 | 7471 ft | 340 kts | 225° |
| 2026-05-09 10:30 | 42.24972 | 19.07776 | 7133 ft | 325 kts | 225° |
| 2026-05-09 10:30 | 42.23375 | 19.05704 | 6841 ft | 312 kts | 225° |
| 2026-05-09 10:31 | 42.21840 | 19.03715 | 6585 ft | 299 kts | 225° |
| 2026-05-09 10:31 | 42.20379 | 19.01824 | 6464 ft | 283 kts | 224° |
| 2026-05-09 10:31 | 42.18990 | 19.00031 | 6326 ft | 269 kts | 224° |
| 2026-05-09 10:31 | 42.17672 | 18.98334 | 6216 ft | 255 kts | 224° |
| 2026-05-09 10:32 | 42.16419 | 18.96724 | 6096 ft | 242 kts | 224° |